sensor_id;sensor_type;location;lat;lon;timestamp;pressure;altitude;pressure_sealevel;temperature;humidity
32083;BME280;18597;48.328;7.932;2023-12-20T00:01:33;99813.41;;;5.80;100.00
32083;BME280;18597;48.328;7.932;2023-12-20T00:03:59;99803.38;;;5.71;100.00
32083;BME280;18597;48.328;7.932;2023-12-20T00:06:24;99813.34;;;5.53;100.00
32083;BME280;18597;48.328;7.932;2023-12-20T00:08:50;99816.63;;;5.42;100.00
32083;BME280;18597;48.328;7.932;2023-12-20T00:11:16;99813.44;;;5.37;100.00
32083;BME280;18597;48.328;7.932;2023-12-20T00:13:42;99816.72;;;5.41;100.00
32083;BME280;18597;48.328;7.932;2023-12-20T00:16:09;99819.75;;;5.49;100.00
32083;BME280;18597;48.328;7.932;2023-12-20T00:18:38;99802.81;;;5.51;100.00
32083;BME280;18597;48.328;7.932;2023-12-20T00:21:04;99796.28;;;5.43;100.00
32083;BME280;18597;48.328;7.932;2023-12-20T00:23:30;99793.09;;;5.38;100.00
32083;BME280;18597;48.328;7.932;2023-12-20T00:25:56;99801.19;;;5.35;100.00
32083;BME280;18597;48.328;7.932;2023-12-20T00:28:22;99802.25;;;5.32;100.00
32083;BME280;18597;48.328;7.932;2023-12-20T00:30:48;99795.53;;;5.41;100.00
32083;BME280;18597;48.328;7.932;2023-12-20T00:33:14;99805.47;;;5.37;100.00
32083;BME280;18597;48.328;7.932;2023-12-20T00:35:40;99809.25;;;5.33;100.00
32083;BME280;18597;48.328;7.932;2023-12-20T00:38:06;99800.47;;;5.47;100.00
32083;BME280;18597;48.328;7.932;2023-12-20T00:40:32;99798.44;;;5.36;100.00
32083;BME280;18597;48.328;7.932;2023-12-20T00:42:59;99799.50;;;5.62;100.00
32083;BME280;18597;48.328;7.932;2023-12-20T00:45:24;99795.63;;;5.53;100.00
32083;BME280;18597;48.328;7.932;2023-12-20T00:47:50;99800.72;;;5.56;100.00
32083;BME280;18597;48.328;7.932;2023-12-20T00:50:16;99799.22;;;5.52;100.00
32083;BME280;18597;48.328;7.932;2023-12-20T00:52:42;99796.47;;;5.54;100.00
32083;BME280;18597;48.328;7.932;2023-12-20T00:55:08;99800.63;;;5.44;100.00
32083;BME280;18597;48.328;7.932;2023-12-20T00:57:34;99797.91;;;5.45;100.00
32083;BME280;18597;48.328;7.932;2023-12-20T01:00:00;99788.81;;;5.49;100.00
32083;BME280;18597;48.328;7.932;2023-12-20T01:02:26;99791.75;;;5.45;100.00
32083;BME280;18597;48.328;7.932;2023-12-20T01:04:52;99789.00;;;5.46;100.00
32083;BME280;18597;48.328;7.932;2023-12-20T01:07:18;99784.72;;;5.44;100.00
32083;BME280;18597;48.328;7.932;2023-12-20T01:09:44;99788.53;;;5.40;100.00
32083;BME280;18597;48.328;7.932;2023-12-20T01:12:10;99783.03;;;5.43;100.00
32083;BME280;18597;48.328;7.932;2023-12-20T01:14:35;99787.97;;;5.49;100.00
32083;BME280;18597;48.328;7.932;2023-12-20T01:17:02;99792.13;;;5.39;100.00
32083;BME280;18597;48.328;7.932;2023-12-20T01:19:28;99789.28;;;5.42;100.00
32083;BME280;18597;48.328;7.932;2023-12-20T01:21:55;99803.69;;;5.52;100.00
32083;BME280;18597;48.328;7.932;2023-12-20T01:24:21;99795.31;;;5.44;100.00
32083;BME280;18597;48.328;7.932;2023-12-20T01:26:47;99803.22;;;5.45;100.00
32083;BME280;18597;48.328;7.932;2023-12-20T01:29:13;99799.13;;;5.40;100.00
32083;BME280;18597;48.328;7.932;2023-12-20T01:31:40;99793.63;;;5.43;100.00
32083;BME280;18597;48.328;7.932;2023-12-20T01:34:06;99784.94;;;5.41;100.00
32083;BME280;18597;48.328;7.932;2023-12-20T01:36:32;99788.25;;;5.44;100.00
32083;BME280;18597;48.328;7.932;2023-12-20T01:38:58;99785.97;;;5.38;100.00
32083;BME280;18597;48.328;7.932;2023-12-20T01:41:23;99789.84;;;5.47;100.00
32083;BME280;18597;48.328;7.932;2023-12-20T01:43:49;99792.13;;;5.67;100.00
32083;BME280;18597;48.328;7.932;2023-12-20T01:46:15;99789.19;;;5.57;100.00
32083;BME280;18597;48.328;7.932;2023-12-20T01:48:42;99797.06;;;5.45;100.00
32083;BME280;18597;48.328;7.932;2023-12-20T01:51:08;99795.91;;;5.49;100.00
32083;BME280;18597;48.328;7.932;2023-12-20T01:53:35;99794.41;;;5.45;100.00
32083;BME280;18597;48.328;7.932;2023-12-20T01:56:01;99795.31;;;5.44;100.00
32083;BME280;18597;48.328;7.932;2023-12-20T01:58:27;99800.56;;;5.45;100.00
32083;BME280;18597;48.328;7.932;2023-12-20T02:00:54;99794.22;;;5.48;100.00
32083;BME280;18597;48.328;7.932;2023-12-20T02:03:21;99794.00;;;5.51;100.00
32083;BME280;18597;48.328;7.932;2023-12-20T02:05:47;99789.66;;;5.50;100.00
32083;BME280;18597;48.328;7.932;2023-12-20T02:08:13;99786.63;;;5.42;100.00
32083;BME280;18597;48.328;7.932;2023-12-20T02:10:40;99791.75;;;5.31;100.00
32083;BME280;18597;48.328;7.932;2023-12-20T02:13:06;99784.75;;;5.29;100.00
32083;BME280;18597;48.328;7.932;2023-12-20T02:15:32;99784.66;;;5.31;100.00
32083;BME280;18597;48.328;7.932;2023-12-20T02:17:58;99781.53;;;5.39;100.00
32083;BME280;18597;48.328;7.932;2023-12-20T02:20:24;99778.13;;;5.37;100.00
32083;BME280;18597;48.328;7.932;2023-12-20T02:22:50;99774.53;;;5.38;100.00
32083;BME280;18597;48.328;7.932;2023-12-20T02:25:16;99777.94;;;5.40;100.00
32083;BME280;18597;48.328;7.932;2023-12-20T02:27:41;99777.25;;;5.36;100.00
32083;BME280;18597;48.328;7.932;2023-12-20T02:30:10;99781.34;;;5.42;100.00
32083;BME280;18597;48.328;7.932;2023-12-20T02:32:35;99777.94;;;5.40;100.00
32083;BME280;18597;48.328;7.932;2023-12-20T02:35:01;99780.31;;;5.44;100.00
32083;BME280;18597;48.328;7.932;2023-12-20T02:37:27;99788.53;;;5.40;100.00
32083;BME280;18597;48.328;7.932;2023-12-20T02:39:53;99781.44;;;5.40;100.00
32083;BME280;18597;48.328;7.932;2023-12-20T02:42:19;99777.09;;;5.39;100.00
32083;BME280;18597;48.328;7.932;2023-12-20T02:44:44;99782.66;;;5.35;100.00
32083;BME280;18597;48.328;7.932;2023-12-20T02:47:10;99795.06;;;5.34;100.00
32083;BME280;18597;48.328;7.932;2023-12-20T02:49:36;99785.31;;;5.35;100.00
32083;BME280;18597;48.328;7.932;2023-12-20T02:52:02;99787.69;;;5.39;100.00
32083;BME280;18597;48.328;7.932;2023-12-20T02:54:28;99783.44;;;5.37;100.00
32083;BME280;18597;48.328;7.932;2023-12-20T02:56:53;99788.72;;;5.37;100.00
32083;BME280;18597;48.328;7.932;2023-12-20T02:59:19;99785.97;;;5.38;100.00
32083;BME280;18597;48.328;7.932;2023-12-20T03:01:46;99781.69;;;5.36;100.00
32083;BME280;18597;48.328;7.932;2023-12-20T03:04:12;99781.53;;;5.39;100.00
32083;BME280;18597;48.328;7.932;2023-12-20T03:06:38;99784.25;;;5.51;100.00
32083;BME280;18597;48.328;7.932;2023-12-20T03:09:05;99783.03;;;5.43;100.00
32083;BME280;18597;48.328;7.932;2023-12-20T03:11:31;99787.00;;;5.36;100.00
32083;BME280;18597;48.328;7.932;2023-12-20T03:13:57;99795.91;;;5.35;100.00
32083;BME280;18597;48.328;7.932;2023-12-20T03:16:23;99801.31;;;5.33;100.00
32083;BME280;18597;48.328;7.932;2023-12-20T03:18:49;99798.66;;;5.33;100.00
32083;BME280;18597;48.328;7.932;2023-12-20T03:21:15;99802.25;;;5.32;100.00
32083;BME280;18597;48.328;7.932;2023-12-20T03:23:41;99806.88;;;5.28;100.00
32083;BME280;18597;48.328;7.932;2023-12-20T03:26:08;99808.28;;;5.34;100.00
32083;BME280;18597;48.328;7.932;2023-12-20T03:28:34;99806.69;;;5.32;100.00
32083;BME280;18597;48.328;7.932;2023-12-20T03:31:00;99804.03;;;5.32;100.00
32083;BME280;18597;48.328;7.932;2023-12-20T03:33:26;99810.19;;;5.32;100.00
32083;BME280;18597;48.328;7.932;2023-12-20T03:35:51;99808.41;;;5.33;100.00
32083;BME280;18597;48.328;7.932;2023-12-20T03:38:17;99812.09;;;5.30;100.00
32083;BME280;18597;48.328;7.932;2023-12-20T03:40:43;99810.66;;;5.24;100.00
32083;BME280;18597;48.328;7.932;2023-12-20T03:43:09;99813.31;;;5.24;100.00
32083;BME280;18597;48.328;7.932;2023-12-20T03:45:34;99813.03;;;5.29;100.00
32083;BME280;18597;48.328;7.932;2023-12-20T03:48:00;99813.69;;;5.33;100.00
32083;BME280;18597;48.328;7.932;2023-12-20T03:50:26;99820.88;;;5.31;100.00
32083;BME280;18597;48.328;7.932;2023-12-20T03:52:52;99815.59;;;5.31;100.00
32083;BME280;18597;48.328;7.932;2023-12-20T03:55:18;99811.41;;;5.26;100.00
32083;BME280;18597;48.328;7.932;2023-12-20T03:57:44;99809.25;;;5.33;100.00
32083;BME280;18597;48.328;7.932;2023-12-20T04:00:11;99806.03;;;5.42;100.00
32083;BME280;18597;48.328;7.932;2023-12-20T04:02:38;99806.50;;;5.49;100.00
32083;BME280;18597;48.328;7.932;2023-12-20T04:05:05;99804.16;;;5.44;100.00
32083;BME280;18597;48.328;7.932;2023-12-20T04:07:31;99799.72;;;5.45;100.00
32083;BME280;18597;48.328;7.932;2023-12-20T04:09:56;99804.44;;;5.40;100.00
32083;BME280;18597;48.328;7.932;2023-12-20T04:12:22;99803.09;;;5.33;100.00
32083;BME280;18597;48.328;7.932;2023-12-20T04:14:48;99802.91;;;5.50;100.00
32083;BME280;18597;48.328;7.932;2023-12-20T04:17:16;99811.06;;;5.47;100.00
32083;BME280;18597;48.328;7.932;2023-12-20T04:19:42;99811.69;;;5.50;100.00
32083;BME280;18597;48.328;7.932;2023-12-20T04:22:08;99822.59;;;5.46;100.00
32083;BME280;18597;48.328;7.932;2023-12-20T04:24:34;99817.09;;;5.49;100.00
32083;BME280;18597;48.328;7.932;2023-12-20T04:27:01;99824.41;;;5.45;100.00
32083;BME280;18597;48.328;7.932;2023-12-20T04:29:27;99812.97;;;5.45;100.00
32083;BME280;18597;48.328;7.932;2023-12-20T04:31:53;99829.03;;;5.42;100.00
32083;BME280;18597;48.328;7.932;2023-12-20T04:34:21;99834.13;;;5.31;100.00
32083;BME280;18597;48.328;7.932;2023-12-20T04:36:47;99834.25;;;5.29;100.00
32083;BME280;18597;48.328;7.932;2023-12-20T04:39:13;99831.66;;;5.27;100.00
32083;BME280;18597;48.328;7.932;2023-12-20T04:41:40;99826.09;;;5.46;100.00
32083;BME280;18597;48.328;7.932;2023-12-20T04:44:06;99829.22;;;5.39;100.00
32083;BME280;18597;48.328;7.932;2023-12-20T04:46:32;99835.06;;;5.44;100.00
32083;BME280;18597;48.328;7.932;2023-12-20T04:48:58;99842.63;;;5.36;100.00
32083;BME280;18597;48.328;7.932;2023-12-20T04:51:24;99842.75;;;5.34;100.00
32083;BME280;18597;48.328;7.932;2023-12-20T04:53:50;99859.69;;;5.32;100.00
32083;BME280;18597;48.328;7.932;2023-12-20T04:56:16;99850.69;;;5.34;100.00
32083;BME280;18597;48.328;7.932;2023-12-20T04:58:43;99860.34;;;5.49;100.00
32083;BME280;18597;48.328;7.932;2023-12-20T05:01:09;99864.34;;;5.56;100.00
32083;BME280;18597;48.328;7.932;2023-12-20T05:03:35;99860.44;;;5.48;100.00
32083;BME280;18597;48.328;7.932;2023-12-20T05:06:01;99860.66;;;5.45;100.00
32083;BME280;18597;48.328;7.932;2023-12-20T05:08:27;99859.50;;;5.49;100.00
32083;BME280;18597;48.328;7.932;2023-12-20T05:10:54;99870.31;;;5.46;100.00
32083;BME280;18597;48.328;7.932;2023-12-20T05:13:21;99882.63;;;5.61;100.00
32083;BME280;18597;48.328;7.932;2023-12-20T05:15:46;99874.09;;;5.70;100.00
32083;BME280;18597;48.328;7.932;2023-12-20T05:18:13;99875.53;;;5.62;100.00
32083;BME280;18597;48.328;7.932;2023-12-20T05:20:40;99874.66;;;5.61;100.00
32083;BME280;18597;48.328;7.932;2023-12-20T05:23:06;99873.13;;;5.57;100.00
32083;BME280;18597;48.328;7.932;2023-12-20T05:25:32;99873.03;;;5.58;100.00
32083;BME280;18597;48.328;7.932;2023-12-20T05:27:58;99883.84;;;5.55;100.00
32083;BME280;18597;48.328;7.932;2023-12-20T05:30:24;99869.75;;;5.69;100.00
32083;BME280;18597;48.328;7.932;2023-12-20T05:32:50;99885.44;;;5.58;100.00
32083;BME280;18597;48.328;7.932;2023-12-20T05:35:16;99875.97;;;5.54;100.00
32083;BME280;18597;48.328;7.932;2023-12-20T05:37:42;99883.00;;;5.69;100.00
32083;BME280;18597;48.328;7.932;2023-12-20T05:40:09;99881.84;;;5.73;100.00
32083;BME280;18597;48.328;7.932;2023-12-20T05:42:37;99885.28;;;5.61;100.00
32083;BME280;18597;48.328;7.932;2023-12-20T05:45:04;99889.13;;;5.55;100.00
32083;BME280;18597;48.328;7.932;2023-12-20T05:47:31;99891.88;;;5.54;100.00
32083;BME280;18597;48.328;7.932;2023-12-20T05:49:57;99889.78;;;5.59;100.00
32083;BME280;18597;48.328;7.932;2023-12-20T05:52:23;99887.25;;;5.57;100.00
32083;BME280;18597;48.328;7.932;2023-12-20T05:54:48;99896.88;;;5.58;100.00
32083;BME280;18597;48.328;7.932;2023-12-20T05:57:14;99896.81;;;5.60;100.00
32083;BME280;18597;48.328;7.932;2023-12-20T05:59:40;99902.31;;;5.71;100.00
32083;BME280;18597;48.328;7.932;2023-12-20T06:02:06;99904.97;;;5.71;100.00
32083;BME280;18597;48.328;7.932;2023-12-20T06:04:32;99915.41;;;5.74;100.00
32083;BME280;18597;48.328;7.932;2023-12-20T06:06:58;99912.25;;;5.68;100.00
32083;BME280;18597;48.328;7.932;2023-12-20T06:09:27;99909.31;;;5.72;100.00
32083;BME280;18597;48.328;7.932;2023-12-20T06:11:53;99927.22;;;5.69;100.00
32083;BME280;18597;48.328;7.932;2023-12-20T06:14:19;99921.81;;;5.84;100.00
32083;BME280;18597;48.328;7.932;2023-12-20T06:16:45;99918.03;;;5.74;100.00
32083;BME280;18597;48.328;7.932;2023-12-20T06:19:11;99909.88;;;5.77;100.00
32083;BME280;18597;48.328;7.932;2023-12-20T06:21:40;99910.88;;;5.91;100.00
32083;BME280;18597;48.328;7.932;2023-12-20T06:24:06;99911.50;;;5.80;100.00
32083;BME280;18597;48.328;7.932;2023-12-20T06:26:32;99910.25;;;5.71;100.00
32083;BME280;18597;48.328;7.932;2023-12-20T06:28:58;99919.25;;;5.69;100.00
32083;BME280;18597;48.328;7.932;2023-12-20T06:31:23;99915.66;;;5.70;100.00
32083;BME280;18597;48.328;7.932;2023-12-20T06:33:49;99916.41;;;5.72;100.00
32083;BME280;18597;48.328;7.932;2023-12-20T06:36:23;99920.50;;;5.77;100.00
32083;BME280;18597;48.328;7.932;2023-12-20T06:38:50;99928.72;;;5.73;100.00
32083;BME280;18597;48.328;7.932;2023-12-20T06:41:16;99933.53;;;5.66;100.00
32083;BME280;18597;48.328;7.932;2023-12-20T06:43:42;99936.13;;;5.68;100.00
32083;BME280;18597;48.328;7.932;2023-12-20T06:46:08;99941.03;;;5.74;100.00
32083;BME280;18597;48.328;7.932;2023-12-20T06:48:34;99945.88;;;5.67;100.00
32083;BME280;18597;48.328;7.932;2023-12-20T06:51:01;99943.41;;;5.78;100.00
32083;BME280;18597;48.328;7.932;2023-12-20T06:53:28;99941.88;;;5.89;100.00
32083;BME280;18597;48.328;7.932;2023-12-20T06:55:54;99944.34;;;5.77;100.00
32083;BME280;18597;48.328;7.932;2023-12-20T06:58:22;99948.50;;;5.81;100.00
32083;BME280;18597;48.328;7.932;2023-12-20T07:00:48;99941.97;;;5.73;100.00
32083;BME280;18597;48.328;7.932;2023-12-20T07:03:14;99946.75;;;5.82;100.00
32083;BME280;18597;48.328;7.932;2023-12-20T07:05:40;99965.06;;;5.71;100.00
32083;BME280;18597;48.328;7.932;2023-12-20T07:08:06;99980.88;;;5.72;100.00
32083;BME280;18597;48.328;7.932;2023-12-20T07:10:32;99977.28;;;5.73;100.00
32083;BME280;18597;48.328;7.932;2023-12-20T07:12:58;99980.78;;;5.74;100.00
32083;BME280;18597;48.328;7.932;2023-12-20T07:15:24;99984.31;;;5.74;100.00
32083;BME280;18597;48.328;7.932;2023-12-20T07:17:50;99968.22;;;5.77;100.00
32083;BME280;18597;48.328;7.932;2023-12-20T07:20:16;99982.97;;;5.81;100.00
32083;BME280;18597;48.328;7.932;2023-12-20T07:22:42;99975.69;;;5.85;100.00
32083;BME280;18597;48.328;7.932;2023-12-20T07:25:08;99985.63;;;5.81;100.00
32083;BME280;18597;48.328;7.932;2023-12-20T07:27:34;99984.13;;;5.77;100.00
32083;BME280;18597;48.328;7.932;2023-12-20T07:30:00;99991.50;;;5.72;100.00
32083;BME280;18597;48.328;7.932;2023-12-20T07:32:25;99995.34;;;5.67;100.00
32083;BME280;18597;48.328;7.932;2023-12-20T07:34:51;99999.81;;;5.66;100.00
32083;BME280;18597;48.328;7.932;2023-12-20T07:37:17;100002.94;;;5.73;100.00
32083;BME280;18597;48.328;7.932;2023-12-20T07:39:43;100008.25;;;5.73;100.00
32083;BME280;18597;48.328;7.932;2023-12-20T07:42:09;100016.50;;;5.68;100.00
32083;BME280;18597;48.328;7.932;2023-12-20T07:44:35;100011.97;;;5.84;100.00
32083;BME280;18597;48.328;7.932;2023-12-20T07:47:01;100024.84;;;5.76;100.00
32083;BME280;18597;48.328;7.932;2023-12-20T07:49:27;100010.63;;;5.77;100.00
32083;BME280;18597;48.328;7.932;2023-12-20T07:51:53;100007.22;;;5.75;100.00
32083;BME280;18597;48.328;7.932;2023-12-20T07:54:19;100019.19;;;5.82;100.00
32083;BME280;18597;48.328;7.932;2023-12-20T07:56:46;100014.78;;;5.81;100.00
32083;BME280;18597;48.328;7.932;2023-12-20T07:59:12;100021.81;;;5.82;100.00
32083;BME280;18597;48.328;7.932;2023-12-20T08:01:38;100017.44;;;5.97;100.00
32083;BME280;18597;48.328;7.932;2023-12-20T08:04:04;100026.94;;;5.85;100.00
32083;BME280;18597;48.328;7.932;2023-12-20T08:06:29;100024.66;;;5.79;100.00
32083;BME280;18597;48.328;7.932;2023-12-20T08:08:55;100023.78;;;5.79;100.00
32083;BME280;18597;48.328;7.932;2023-12-20T08:11:21;100032.34;;;5.84;100.00
32083;BME280;18597;48.328;7.932;2023-12-20T08:13:47;100035.53;;;5.89;100.00
32083;BME280;18597;48.328;7.932;2023-12-20T08:16:13;100031.91;;;5.92;100.00
32083;BME280;18597;48.328;7.932;2023-12-20T08:18:40;100033.06;;;6.16;100.00
32083;BME280;18597;48.328;7.932;2023-12-20T08:21:06;100038.25;;;6.03;100.00
32083;BME280;18597;48.328;7.932;2023-12-20T08:23:34;100046.50;;;5.99;100.00
32083;BME280;18597;48.328;7.932;2023-12-20T08:26:05;100049.69;;;5.90;100.00
32083;BME280;18597;48.328;7.932;2023-12-20T08:28:31;100053.19;;;5.90;100.00
32083;BME280;18597;48.328;7.932;2023-12-20T08:30:57;100054.81;;;5.93;100.00
32083;BME280;18597;48.328;7.932;2023-12-20T08:33:23;100047.84;;;6.06;100.00
32083;BME280;18597;48.328;7.932;2023-12-20T08:35:49;100054.28;;;6.16;100.00
32083;BME280;18597;48.328;7.932;2023-12-20T08:38:15;100061.31;;;6.17;100.00
32083;BME280;18597;48.328;7.932;2023-12-20T08:40:40;100059.03;;;6.25;100.00
32083;BME280;18597;48.328;7.932;2023-12-20T08:43:07;100058.41;;;6.36;100.00
32083;BME280;18597;48.328;7.932;2023-12-20T08:45:32;100064.16;;;6.57;100.00
32083;BME280;18597;48.328;7.932;2023-12-20T08:47:58;100064.34;;;6.82;100.00
32083;BME280;18597;48.328;7.932;2023-12-20T08:50:25;100070.88;;;6.91;100.00
32083;BME280;18597;48.328;7.932;2023-12-20T08:52:51;100071.00;;;6.89;100.00
32083;BME280;18597;48.328;7.932;2023-12-20T08:55:17;100076.31;;;6.75;100.00
32083;BME280;18597;48.328;7.932;2023-12-20T08:57:44;100086.66;;;6.65;100.00
32083;BME280;18597;48.328;7.932;2023-12-20T09:00:10;100094.16;;;6.59;100.00
32083;BME280;18597;48.328;7.932;2023-12-20T09:02:36;100095.09;;;6.44;100.00
32083;BME280;18597;48.328;7.932;2023-12-20T09:05:03;100086.75;;;6.35;100.00
32083;BME280;18597;48.328;7.932;2023-12-20T09:07:29;100082.28;;;6.36;100.00
32083;BME280;18597;48.328;7.932;2023-12-20T09:09:57;100094.13;;;6.30;100.00
32083;BME280;18597;48.328;7.932;2023-12-20T09:12:23;100091.19;;;6.21;100.00
32083;BME280;18597;48.328;7.932;2023-12-20T09:14:51;100103.19;;;6.26;100.00
32083;BME280;18597;48.328;7.932;2023-12-20T09:17:18;100103.03;;;6.29;100.00
32083;BME280;18597;48.328;7.932;2023-12-20T09:19:44;100100.94;;;6.20;100.00
32083;BME280;18597;48.328;7.932;2023-12-20T09:22:11;100108.78;;;6.22;100.00
32083;BME280;18597;48.328;7.932;2023-12-20T09:24:37;100104.81;;;6.15;100.00
32083;BME280;18597;48.328;7.932;2023-12-20T09:27:04;100113.03;;;6.10;100.00
32083;BME280;18597;48.328;7.932;2023-12-20T09:29:31;100111.13;;;6.12;100.00
32083;BME280;18597;48.328;7.932;2023-12-20T09:31:57;100105.47;;;6.18;100.00
32083;BME280;18597;48.328;7.932;2023-12-20T09:34:23;100109.00;;;6.33;100.00
32083;BME280;18597;48.328;7.932;2023-12-20T09:36:49;100111.38;;;6.37;100.00
32083;BME280;18597;48.328;7.932;2023-12-20T09:39:17;100117.53;;;6.38;100.00
32083;BME280;18597;48.328;7.932;2023-12-20T09:41:46;100126.75;;;6.47;100.00
32083;BME280;18597;48.328;7.932;2023-12-20T09:44:16;100125.69;;;6.49;100.00
32083;BME280;18597;48.328;7.932;2023-12-20T09:46:45;100119.53;;;6.49;100.00
32083;BME280;18597;48.328;7.932;2023-12-20T09:49:15;100121.72;;;6.56;100.00
32083;BME280;18597;48.328;7.932;2023-12-20T09:51:43;100124.09;;;6.61;100.00
32083;BME280;18597;48.328;7.932;2023-12-20T09:54:09;100119.66;;;6.61;100.00
32083;BME280;18597;48.328;7.932;2023-12-20T09:56:36;100123.41;;;6.57;100.00
32083;BME280;18597;48.328;7.932;2023-12-20T09:59:02;100119.91;;;6.57;100.00
32083;BME280;18597;48.328;7.932;2023-12-20T10:01:29;100121.06;;;6.53;100.00
32083;BME280;18597;48.328;7.932;2023-12-20T10:03:56;100128.28;;;6.51;100.00
32083;BME280;18597;48.328;7.932;2023-12-20T10:06:24;100127.50;;;6.63;100.00
32083;BME280;18597;48.328;7.932;2023-12-20T10:08:49;100125.06;;;6.74;100.00
32083;BME280;18597;48.328;7.932;2023-12-20T10:11:15;100128.75;;;6.86;100.00
32083;BME280;18597;48.328;7.932;2023-12-20T10:13:42;100127.13;;;6.98;100.00
32083;BME280;18597;48.328;7.932;2023-12-20T10:16:08;100124.25;;;7.15;100.00
32083;BME280;18597;48.328;7.932;2023-12-20T10:18:34;100116.06;;;7.32;100.00
32083;BME280;18597;48.328;7.932;2023-12-20T10:21:00;100111.66;;;7.45;100.00
32083;BME280;18597;48.328;7.932;2023-12-20T10:23:26;100112.34;;;7.62;100.00
32083;BME280;18597;48.328;7.932;2023-12-20T10:26:00;100098.66;;;7.68;100.00
32083;BME280;18597;48.328;7.932;2023-12-20T10:28:26;100097.06;;;7.65;100.00
32083;BME280;18597;48.328;7.932;2023-12-20T10:30:54;100102.09;;;7.43;100.00
32083;BME280;18597;48.328;7.932;2023-12-20T10:33:30;100095.00;;;7.29;100.00
32083;BME280;18597;48.328;7.932;2023-12-20T10:35:58;100092.56;;;7.12;100.00
32083;BME280;18597;48.328;7.932;2023-12-20T10:38:24;100096.00;;;7.14;100.00
32083;BME280;18597;48.328;7.932;2023-12-20T10:40:56;100090.47;;;7.17;100.00
32083;BME280;18597;48.328;7.932;2023-12-20T10:43:24;100090.88;;;7.11;100.00
32083;BME280;18597;48.328;7.932;2023-12-20T10:45:52;100103.28;;;7.10;100.00
32083;BME280;18597;48.328;7.932;2023-12-20T10:48:18;100102.44;;;7.10;100.00
32083;BME280;18597;48.328;7.932;2023-12-20T10:50:46;100097.81;;;6.99;100.00
32083;BME280;18597;48.328;7.932;2023-12-20T10:53:13;100090.03;;;6.96;100.00
32083;BME280;18597;48.328;7.932;2023-12-20T10:55:39;100086.53;;;6.95;100.00
32083;BME280;18597;48.328;7.932;2023-12-20T10:58:08;100076.56;;;6.99;100.00
32083;BME280;18597;48.328;7.932;2023-12-20T11:00:43;100079.91;;;6.88;100.00
32083;BME280;18597;48.328;7.932;2023-12-20T11:03:12;100085.13;;;6.76;100.00
32083;BME280;18597;48.328;7.932;2023-12-20T11:06:47;100083.81;;;6.68;100.00
32083;BME280;18597;48.328;7.932;2023-12-20T11:08:47;100082.47;;;6.90;100.00
32083;BME280;18597;48.328;7.932;2023-12-20T11:11:35;100080.03;;;7.14;100.00
32083;BME280;18597;48.328;7.932;2023-12-20T11:14:19;100068.66;;;7.39;100.00
32083;BME280;18597;48.328;7.932;2023-12-20T11:16:47;100079.06;;;7.56;100.00
32083;BME280;18597;48.328;7.932;2023-12-20T11:19:13;100075.78;;;7.65;100.00
32083;BME280;18597;48.328;7.932;2023-12-20T11:21:40;100067.81;;;7.65;100.00
32083;BME280;18597;48.328;7.932;2023-12-20T11:24:07;100073.44;;;7.61;100.00
32083;BME280;18597;48.328;7.932;2023-12-20T11:26:34;100066.41;;;7.60;100.00
32083;BME280;18597;48.328;7.932;2023-12-20T11:29:35;100067.13;;;7.49;100.00
32083;BME280;18597;48.328;7.932;2023-12-20T11:32:03;100061.84;;;7.62;100.00
32083;BME280;18597;48.328;7.932;2023-12-20T11:34:33;100057.53;;;7.73;100.00
32083;BME280;18597;48.328;7.932;2023-12-20T11:37:00;100064.66;;;7.86;100.00
32083;BME280;18597;48.328;7.932;2023-12-20T11:39:28;100061.59;;;7.92;100.00
32083;BME280;18597;48.328;7.932;2023-12-20T11:41:56;100057.22;;;7.91;100.00
32083;BME280;18597;48.328;7.932;2023-12-20T11:44:25;100052.38;;;7.70;100.00
32083;BME280;18597;48.328;7.932;2023-12-20T11:46:51;100056.66;;;7.73;100.00
32083;BME280;18597;48.328;7.932;2023-12-20T11:49:23;100048.13;;;7.68;100.00
32083;BME280;18597;48.328;7.932;2023-12-20T11:51:50;100050.78;;;7.68;100.00
32083;BME280;18597;48.328;7.932;2023-12-20T11:54:16;100051.53;;;7.70;100.00
32083;BME280;18597;48.328;7.932;2023-12-20T11:56:42;100047.91;;;7.58;100.00
32083;BME280;18597;48.328;7.932;2023-12-20T11:59:08;100060.53;;;7.55;100.00
32083;BME280;18597;48.328;7.932;2023-12-20T12:01:34;100054.75;;;7.48;100.00
32083;BME280;18597;48.328;7.932;2023-12-20T12:04:04;100052.31;;;7.45;100.00
32083;BME280;18597;48.328;7.932;2023-12-20T12:06:31;100055.09;;;7.43;100.00
32083;BME280;18597;48.328;7.932;2023-12-20T12:08:57;100063.34;;;7.39;100.00
32083;BME280;18597;48.328;7.932;2023-12-20T12:11:23;100057.19;;;7.38;100.00
32083;BME280;18597;48.328;7.932;2023-12-20T12:13:49;100056.03;;;7.42;100.00
32083;BME280;18597;48.328;7.932;2023-12-20T12:16:20;100055.09;;;7.43;100.00
32083;BME280;18597;48.328;7.932;2023-12-20T12:18:46;100048.19;;;7.41;100.00
32083;BME280;18597;48.328;7.932;2023-12-20T12:21:20;100042.44;;;7.47;100.00
32083;BME280;18597;48.328;7.932;2023-12-20T12:23:46;100045.75;;;7.50;100.00
32083;BME280;18597;48.328;7.932;2023-12-20T12:26:12;100052.38;;;7.58;100.00
32083;BME280;18597;48.328;7.932;2023-12-20T12:28:41;100051.72;;;7.54;100.00
32083;BME280;18597;48.328;7.932;2023-12-20T12:31:08;100051.31;;;7.60;100.00
32083;BME280;18597;48.328;7.932;2023-12-20T12:33:34;100048.34;;;7.77;100.00
32083;BME280;18597;48.328;7.932;2023-12-20T12:36:01;100046.38;;;7.81;100.00
32083;BME280;18597;48.328;7.932;2023-12-20T12:38:27;100047.66;;;7.88;100.00
32083;BME280;18597;48.328;7.932;2023-12-20T12:40:54;100046.28;;;7.95;100.00
32083;BME280;18597;48.328;7.932;2023-12-20T12:43:20;100054.56;;;7.91;100.00
32083;BME280;18597;48.328;7.932;2023-12-20T12:45:48;100055.22;;;7.94;100.00
32083;BME280;18597;48.328;7.932;2023-12-20T12:48:15;100049.69;;;7.97;100.00
32083;BME280;18597;48.328;7.932;2023-12-20T12:50:41;100039.38;;;8.05;100.00
32083;BME280;18597;48.328;7.932;2023-12-20T12:53:06;100041.19;;;8.18;100.00